sensor_id;sensor_type;location;lat;lon;timestamp;temperature;humidity
30594;DHT22;33199;47.590;8.300;2023-03-01T00:02:02;7.60;61.40
30594;DHT22;33199;47.590;8.300;2023-03-01T00:04:28;7.60;61.40
30594;DHT22;33199;47.590;8.300;2023-03-01T00:06:54;7.60;61.50
30594;DHT22;33199;47.590;8.300;2023-03-01T00:09:19;7.60;61.50
30594;DHT22;33199;47.590;8.300;2023-03-01T00:11:45;7.60;61.50
30594;DHT22;33199;47.590;8.300;2023-03-01T00:14:11;7.60;61.50
30594;DHT22;33199;47.590;8.300;2023-03-01T00:16:39;7.60;61.60
30594;DHT22;33199;47.590;8.300;2023-03-01T00:19:15;7.60;61.40
30594;DHT22;33199;47.590;8.300;2023-03-01T00:21:41;7.60;61.50
30594;DHT22;33199;47.590;8.300;2023-03-01T00:24:08;7.60;61.50
30594;DHT22;33199;47.590;8.300;2023-03-01T00:26:33;7.60;61.60
30594;DHT22;33199;47.590;8.300;2023-03-01T00:28:59;7.60;61.50
30594;DHT22;33199;47.590;8.300;2023-03-01T00:31:29;7.60;61.60
30594;DHT22;33199;47.590;8.300;2023-03-01T00:33:58;7.60;61.60
30594;DHT22;33199;47.590;8.300;2023-03-01T00:36:26;7.60;61.70
30594;DHT22;33199;47.590;8.300;2023-03-01T00:38:53;7.60;61.60
30594;DHT22;33199;47.590;8.300;2023-03-01T00:41:20;7.60;61.60
30594;DHT22;33199;47.590;8.300;2023-03-01T00:43:46;7.60;61.70
30594;DHT22;33199;47.590;8.300;2023-03-01T00:46:16;7.60;61.70
30594;DHT22;33199;47.590;8.300;2023-03-01T00:48:42;7.60;61.70
30594;DHT22;33199;47.590;8.300;2023-03-01T00:51:10;7.60;61.60
30594;DHT22;33199;47.590;8.300;2023-03-01T00:53:36;7.60;61.60
30594;DHT22;33199;47.590;8.300;2023-03-01T00:56:03;7.60;61.70
30594;DHT22;33199;47.590;8.300;2023-03-01T00:58:29;7.60;61.70
30594;DHT22;33199;47.590;8.300;2023-03-01T01:00:55;7.60;61.70
30594;DHT22;33199;47.590;8.300;2023-03-01T01:03:21;7.60;61.70
30594;DHT22;33199;47.590;8.300;2023-03-01T01:05:47;7.60;61.70
30594;DHT22;33199;47.590;8.300;2023-03-01T01:08:12;7.60;61.70
30594;DHT22;33199;47.590;8.300;2023-03-01T01:10:38;7.60;61.70
30594;DHT22;33199;47.590;8.300;2023-03-01T01:13:04;7.60;61.70
30594;DHT22;33199;47.590;8.300;2023-03-01T01:15:33;7.60;61.80
30594;DHT22;33199;47.590;8.300;2023-03-01T01:17:59;7.60;61.80
30594;DHT22;33199;47.590;8.300;2023-03-01T01:20:27;7.60;61.80
30594;DHT22;33199;47.590;8.300;2023-03-01T01:22:53;7.60;61.90
30594;DHT22;33199;47.590;8.300;2023-03-01T01:25:19;7.60;61.90
30594;DHT22;33199;47.590;8.300;2023-03-01T01:27:44;7.60;61.90
30594;DHT22;33199;47.590;8.300;2023-03-01T01:30:11;7.60;61.90
30594;DHT22;33199;47.590;8.300;2023-03-01T01:32:36;7.60;61.90
30594;DHT22;33199;47.590;8.300;2023-03-01T01:35:02;7.60;61.90
30594;DHT22;33199;47.590;8.300;2023-03-01T01:37:28;7.60;61.90
30594;DHT22;33199;47.590;8.300;2023-03-01T01:39:57;7.50;61.80
30594;DHT22;33199;47.590;8.300;2023-03-01T01:42:23;7.60;61.90
30594;DHT22;33199;47.590;8.300;2023-03-01T01:47:54;7.60;61.90
30594;DHT22;33199;47.590;8.300;2023-03-01T01:50:21;7.60;61.90
30594;DHT22;33199;47.590;8.300;2023-03-01T01:52:48;7.60;61.90
30594;DHT22;33199;47.590;8.300;2023-03-01T01:55:20;7.60;61.90
30594;DHT22;33199;47.590;8.300;2023-03-01T01:57:50;7.60;62.00
30594;DHT22;33199;47.590;8.300;2023-03-01T02:00:22;7.60;62.00
30594;DHT22;33199;47.590;8.300;2023-03-01T02:02:51;7.60;61.90
30594;DHT22;33199;47.590;8.300;2023-03-01T02:05:28;7.60;62.00
30594;DHT22;33199;47.590;8.300;2023-03-01T02:07:58;7.60;62.00
30594;DHT22;33199;47.590;8.300;2023-03-01T02:10:25;7.60;62.10
30594;DHT22;33199;47.590;8.300;2023-03-01T02:12:52;7.50;61.90
30594;DHT22;33199;47.590;8.300;2023-03-01T02:15:18;7.50;61.90
30594;DHT22;33199;47.590;8.300;2023-03-01T02:17:44;7.60;61.90
30594;DHT22;33199;47.590;8.300;2023-03-01T02:20:30;7.60;61.90
30594;DHT22;33199;47.590;8.300;2023-03-01T02:22:58;7.60;61.90
30594;DHT22;33199;47.590;8.300;2023-03-01T02:25:54;7.60;62.00
30594;DHT22;33199;47.590;8.300;2023-03-01T02:28:35;7.50;61.90
30594;DHT22;33199;47.590;8.300;2023-03-01T02:31:02;7.50;62.00
30594;DHT22;33199;47.590;8.300;2023-03-01T02:33:54;7.50;62.00
30594;DHT22;33199;47.590;8.300;2023-03-01T02:36:28;7.50;62.00
30594;DHT22;33199;47.590;8.300;2023-03-01T02:38:58;7.50;61.90
30594;DHT22;33199;47.590;8.300;2023-03-01T02:41:26;7.50;62.00
30594;DHT22;33199;47.590;8.300;2023-03-01T02:43:53;7.50;62.00
30594;DHT22;33199;47.590;8.300;2023-03-01T02:46:23;7.50;62.00
30594;DHT22;33199;47.590;8.300;2023-03-01T02:48:52;7.50;62.00
30594;DHT22;33199;47.590;8.300;2023-03-01T02:56:36;7.50;62.00
30594;DHT22;33199;47.590;8.300;2023-03-01T02:59:02;7.50;62.00
30594;DHT22;33199;47.590;8.300;2023-03-01T03:01:29;7.50;62.10
30594;DHT22;33199;47.590;8.300;2023-03-01T03:04:07;7.50;62.10
30594;DHT22;33199;47.590;8.300;2023-03-01T03:06:33;7.50;62.10
30594;DHT22;33199;47.590;8.300;2023-03-01T03:08:59;7.50;62.10
30594;DHT22;33199;47.590;8.300;2023-03-01T03:11:27;7.50;62.10
30594;DHT22;33199;47.590;8.300;2023-03-01T03:13:53;7.50;62.10
30594;DHT22;33199;47.590;8.300;2023-03-01T03:16:19;7.50;62.10
30594;DHT22;33199;47.590;8.300;2023-03-01T03:18:48;7.50;62.10
30594;DHT22;33199;47.590;8.300;2023-03-01T03:21:15;7.50;62.10
30594;DHT22;33199;47.590;8.300;2023-03-01T03:23:42;7.50;62.10
30594;DHT22;33199;47.590;8.300;2023-03-01T03:26:07;7.50;62.20
30594;DHT22;33199;47.590;8.300;2023-03-01T03:28:34;7.50;62.10
30594;DHT22;33199;47.590;8.300;2023-03-01T03:31:01;7.50;62.10
30594;DHT22;33199;47.590;8.300;2023-03-01T03:33:32;7.50;62.10
30594;DHT22;33199;47.590;8.300;2023-03-01T03:35:58;7.50;62.10
30594;DHT22;33199;47.590;8.300;2023-03-01T03:38:24;7.50;62.10
30594;DHT22;33199;47.590;8.300;2023-03-01T03:41:03;7.50;62.10
30594;DHT22;33199;47.590;8.300;2023-03-01T03:43:31;7.50;62.20
30594;DHT22;33199;47.590;8.300;2023-03-01T03:45:57;7.50;62.20
30594;DHT22;33199;47.590;8.300;2023-03-01T03:48:24;7.50;63.00
30594;DHT22;33199;47.590;8.300;2023-03-01T03:50:52;7.50;62.20
30594;DHT22;33199;47.590;8.300;2023-03-01T03:53:19;7.50;62.20
30594;DHT22;33199;47.590;8.300;2023-03-01T03:55:45;7.50;62.30
30594;DHT22;33199;47.590;8.300;2023-03-01T03:58:15;7.50;62.20
30594;DHT22;33199;47.590;8.300;2023-03-01T04:00:43;7.50;62.20
30594;DHT22;33199;47.590;8.300;2023-03-01T04:03:14;7.50;62.20
30594;DHT22;33199;47.590;8.300;2023-03-01T04:05:41;7.50;62.20
30594;DHT22;33199;47.590;8.300;2023-03-01T04:08:07;7.50;62.20
30594;DHT22;33199;47.590;8.300;2023-03-01T04:10:39;7.50;62.20
30594;DHT22;33199;47.590;8.300;2023-03-01T04:13:06;7.50;62.20
30594;DHT22;33199;47.590;8.300;2023-03-01T04:15:32;7.50;62.30
30594;DHT22;33199;47.590;8.300;2023-03-01T04:17:59;7.50;62.20
30594;DHT22;33199;47.590;8.300;2023-03-01T04:20:28;7.50;62.20
30594;DHT22;33199;47.590;8.300;2023-03-01T04:22:59;7.50;62.10
30594;DHT22;33199;47.590;8.300;2023-03-01T04:25:26;7.50;62.20
30594;DHT22;33199;47.590;8.300;2023-03-01T04:27:52;7.50;62.20
30594;DHT22;33199;47.590;8.300;2023-03-01T04:30:17;7.50;62.10
30594;DHT22;33199;47.590;8.300;2023-03-01T04:32:43;7.50;62.30
30594;DHT22;33199;47.590;8.300;2023-03-01T04:35:08;7.50;62.20
30594;DHT22;33199;47.590;8.300;2023-03-01T04:37:34;7.40;62.20
30594;DHT22;33199;47.590;8.300;2023-03-01T04:40:01;7.50;62.20
30594;DHT22;33199;47.590;8.300;2023-03-01T04:42:37;7.50;62.30
30594;DHT22;33199;47.590;8.300;2023-03-01T04:45:03;7.50;62.30
30594;DHT22;33199;47.590;8.300;2023-03-01T04:47:41;7.40;62.20
30594;DHT22;33199;47.590;8.300;2023-03-01T04:50:08;7.50;62.30
30594;DHT22;33199;47.590;8.300;2023-03-01T04:52:35;7.50;62.20
30594;DHT22;33199;47.590;8.300;2023-03-01T04:55:01;7.50;62.20
30594;DHT22;33199;47.590;8.300;2023-03-01T04:57:28;7.50;62.30
30594;DHT22;33199;47.590;8.300;2023-03-01T04:59:54;7.50;62.30
30594;DHT22;33199;47.590;8.300;2023-03-01T05:02:20;7.50;62.30
30594;DHT22;33199;47.590;8.300;2023-03-01T05:04:45;7.40;62.30
30594;DHT22;33199;47.590;8.300;2023-03-01T05:07:11;7.40;62.20
30594;DHT22;33199;47.590;8.300;2023-03-01T05:09:38;7.50;62.40
30594;DHT22;33199;47.590;8.300;2023-03-01T05:12:04;7.50;62.30
30594;DHT22;33199;47.590;8.300;2023-03-01T05:14:30;7.40;62.30
30594;DHT22;33199;47.590;8.300;2023-03-01T05:16:55;7.50;62.30
30594;DHT22;33199;47.590;8.300;2023-03-01T05:19:29;7.40;62.20
30594;DHT22;33199;47.590;8.300;2023-03-01T05:21:56;7.40;62.40
30594;DHT22;33199;47.590;8.300;2023-03-01T05:24:31;7.40;62.30
30594;DHT22;33199;47.590;8.300;2023-03-01T05:26:57;7.40;62.40
30594;DHT22;33199;47.590;8.300;2023-03-01T05:29:25;7.40;62.40
30594;DHT22;33199;47.590;8.300;2023-03-01T05:31:52;7.40;62.40
30594;DHT22;33199;47.590;8.300;2023-03-01T05:34:22;7.40;62.40
30594;DHT22;33199;47.590;8.300;2023-03-01T05:36:48;7.40;62.40
30594;DHT22;33199;47.590;8.300;2023-03-01T05:39:13;7.30;58.10
30594;DHT22;33199;47.590;8.300;2023-03-01T05:41:39;7.20;58.00
30594;DHT22;33199;47.590;8.300;2023-03-01T05:44:06;7.10;58.20
30594;DHT22;33199;47.590;8.300;2023-03-01T05:46:32;7.10;59.50
30594;DHT22;33199;47.590;8.300;2023-03-01T05:48:57;7.10;61.00
30594;DHT22;33199;47.590;8.300;2023-03-01T05:51:23;7.10;61.00
30594;DHT22;33199;47.590;8.300;2023-03-01T05:53:49;7.10;60.70
30594;DHT22;33199;47.590;8.300;2023-03-01T05:56:15;7.10;60.60
30594;DHT22;33199;47.590;8.300;2023-03-01T05:58:40;7.10;60.70
30594;DHT22;33199;47.590;8.300;2023-03-01T06:01:11;7.10;60.80
30594;DHT22;33199;47.590;8.300;2023-03-01T06:03:38;7.20;61.00
30594;DHT22;33199;47.590;8.300;2023-03-01T06:06:03;7.20;61.10
30594;DHT22;33199;47.590;8.300;2023-03-01T06:08:29;7.20;61.20
30594;DHT22;33199;47.590;8.300;2023-03-01T06:10:54;7.20;61.30
30594;DHT22;33199;47.590;8.300;2023-03-01T06:13:20;7.20;61.40
30594;DHT22;33199;47.590;8.300;2023-03-01T06:15:46;7.20;61.40
30594;DHT22;33199;47.590;8.300;2023-03-01T06:18:11;7.20;61.30
30594;DHT22;33199;47.590;8.300;2023-03-01T06:20:37;7.20;61.40
30594;DHT22;33199;47.590;8.300;2023-03-01T06:23:02;7.20;61.40
30594;DHT22;33199;47.590;8.300;2023-03-01T06:25:28;7.20;61.50
30594;DHT22;33199;47.590;8.300;2023-03-01T06:27:54;7.20;61.60
30594;DHT22;33199;47.590;8.300;2023-03-01T06:30:21;7.20;61.60
30594;DHT22;33199;47.590;8.300;2023-03-01T06:32:49;7.20;61.70
30594;DHT22;33199;47.590;8.300;2023-03-01T06:35:16;7.20;61.70
30594;DHT22;33199;47.590;8.300;2023-03-01T06:37:46;7.20;61.80
30594;DHT22;33199;47.590;8.300;2023-03-01T06:40:12;7.20;61.80
30594;DHT22;33199;47.590;8.300;2023-03-01T06:42:40;7.20;61.90
30594;DHT22;33199;47.590;8.300;2023-03-01T06:45:07;7.20;61.80
30594;DHT22;33199;47.590;8.300;2023-03-01T06:47:33;7.20;61.90
30594;DHT22;33199;47.590;8.300;2023-03-01T06:50:03;7.20;61.90
30594;DHT22;33199;47.590;8.300;2023-03-01T06:52:29;7.20;61.90
30594;DHT22;33199;47.590;8.300;2023-03-01T06:54:54;7.20;62.00
30594;DHT22;33199;47.590;8.300;2023-03-01T06:57:20;7.20;62.00
30594;DHT22;33199;47.590;8.300;2023-03-01T06:59:47;7.20;62.00
30594;DHT22;33199;47.590;8.300;2023-03-01T07:02:13;7.20;62.10
30594;DHT22;33199;47.590;8.300;2023-03-01T07:04:40;7.20;62.00
30594;DHT22;33199;47.590;8.300;2023-03-01T07:07:06;7.20;62.00
30594;DHT22;33199;47.590;8.300;2023-03-01T07:09:32;7.20;62.00
30594;DHT22;33199;47.590;8.300;2023-03-01T07:11:58;7.20;61.90
30594;DHT22;33199;47.590;8.300;2023-03-01T07:14:24;7.20;62.00
30594;DHT22;33199;47.590;8.300;2023-03-01T07:16:51;7.20;62.00
30594;DHT22;33199;47.590;8.300;2023-03-01T07:19:17;7.20;62.00
30594;DHT22;33199;47.590;8.300;2023-03-01T07:21:42;7.20;62.00
30594;DHT22;33199;47.590;8.300;2023-03-01T07:24:08;7.20;62.10
30594;DHT22;33199;47.590;8.300;2023-03-01T07:26:34;7.20;62.10
30594;DHT22;33199;47.590;8.300;2023-03-01T07:29:04;7.20;62.20
30594;DHT22;33199;47.590;8.300;2023-03-01T07:31:30;7.20;62.30
30594;DHT22;33199;47.590;8.300;2023-03-01T07:33:56;7.20;62.30
30594;DHT22;33199;47.590;8.300;2023-03-01T07:36:23;7.20;62.20
30594;DHT22;33199;47.590;8.300;2023-03-01T07:38:49;7.20;62.30
30594;DHT22;33199;47.590;8.300;2023-03-01T07:41:14;7.20;62.20
30594;DHT22;33199;47.590;8.300;2023-03-01T07:43:40;7.20;62.30
30594;DHT22;33199;47.590;8.300;2023-03-01T07:46:06;7.20;62.30
30594;DHT22;33199;47.590;8.300;2023-03-01T07:48:32;7.20;62.30
30594;DHT22;33199;47.590;8.300;2023-03-01T07:51:02;7.20;63.10
30594;DHT22;33199;47.590;8.300;2023-03-01T07:53:28;7.20;62.30
30594;DHT22;33199;47.590;8.300;2023-03-01T07:56:04;7.20;62.40
30594;DHT22;33199;47.590;8.300;2023-03-01T07:58:30;7.20;62.40
30594;DHT22;33199;47.590;8.300;2023-03-01T08:00:55;7.20;62.40
30594;DHT22;33199;47.590;8.300;2023-03-01T08:03:21;7.20;62.50
30594;DHT22;33199;47.590;8.300;2023-03-01T08:05:46;7.20;62.50
30594;DHT22;33199;47.590;8.300;2023-03-01T08:08:12;7.20;62.40
30594;DHT22;33199;47.590;8.300;2023-03-01T08:10:38;7.20;62.30
30594;DHT22;33199;47.590;8.300;2023-03-01T08:13:03;7.20;62.40
30594;DHT22;33199;47.590;8.300;2023-03-01T08:15:29;7.20;62.40
30594;DHT22;33199;47.590;8.300;2023-03-01T08:17:54;7.20;62.40
30594;DHT22;33199;47.590;8.300;2023-03-01T08:20:20;7.20;62.40
30594;DHT22;33199;47.590;8.300;2023-03-01T08:22:46;7.20;62.30
30594;DHT22;33199;47.590;8.300;2023-03-01T08:25:11;7.20;62.30
30594;DHT22;33199;47.590;8.300;2023-03-01T08:27:37;7.20;62.40
30594;DHT22;33199;47.590;8.300;2023-03-01T08:30:03;7.20;62.50
30594;DHT22;33199;47.590;8.300;2023-03-01T08:32:29;7.20;62.50
30594;DHT22;33199;47.590;8.300;2023-03-01T08:34:54;7.20;62.50
30594;DHT22;33199;47.590;8.300;2023-03-01T08:37:20;7.20;62.50
30594;DHT22;33199;47.590;8.300;2023-03-01T08:39:46;7.20;62.40
30594;DHT22;33199;47.590;8.300;2023-03-01T08:42:11;7.20;62.50
30594;DHT22;33199;47.590;8.300;2023-03-01T08:44:37;7.20;62.60
30594;DHT22;33199;47.590;8.300;2023-03-01T08:47:03;7.20;62.60
30594;DHT22;33199;47.590;8.300;2023-03-01T08:49:30;7.20;62.60
30594;DHT22;33199;47.590;8.300;2023-03-01T08:51:57;7.20;63.40
30594;DHT22;33199;47.590;8.300;2023-03-01T08:54:23;7.20;62.70
30594;DHT22;33199;47.590;8.300;2023-03-01T08:56:49;7.20;62.60
30594;DHT22;33199;47.590;8.300;2023-03-01T08:59:15;7.10;60.00
30594;DHT22;33199;47.590;8.300;2023-03-01T09:01:42;7.00;57.30
30594;DHT22;33199;47.590;8.300;2023-03-01T09:04:09;6.90;58.50
30594;DHT22;33199;47.590;8.300;2023-03-01T09:06:35;6.80;59.10
30594;DHT22;33199;47.590;8.300;2023-03-01T09:09:02;6.80;59.80
30594;DHT22;33199;47.590;8.300;2023-03-01T09:11:28;6.80;61.00
30594;DHT22;33199;47.590;8.300;2023-03-01T09:13:54;6.80;61.40
30594;DHT22;33199;47.590;8.300;2023-03-01T09:16:21;6.80;61.30
30594;DHT22;33199;47.590;8.300;2023-03-01T09:18:52;6.80;60.90
30594;DHT22;33199;47.590;8.300;2023-03-01T09:21:19;6.80;60.90
30594;DHT22;33199;47.590;8.300;2023-03-01T09:23:47;6.90;60.80
30594;DHT22;33199;47.590;8.300;2023-03-01T09:26:16;6.90;61.20
30594;DHT22;33199;47.590;8.300;2023-03-01T09:28:43;6.90;61.10
30594;DHT22;33199;47.590;8.300;2023-03-01T09:31:10;6.90;61.30
30594;DHT22;33199;47.590;8.300;2023-03-01T09:33:38;6.90;61.20
30594;DHT22;33199;47.590;8.300;2023-03-01T09:36:06;6.90;61.20
30594;DHT22;33199;47.590;8.300;2023-03-01T09:38:32;7.00;61.40
30594;DHT22;33199;47.590;8.300;2023-03-01T09:40:59;6.90;61.30
30594;DHT22;33199;47.590;8.300;2023-03-01T09:44:38;7.00;61.40
30594;DHT22;33199;47.590;8.300;2023-03-01T09:46:45;7.00;61.50
30594;DHT22;33199;47.590;8.300;2023-03-01T09:49:32;7.00;61.50
30594;DHT22;33199;47.590;8.300;2023-03-01T09:54:52;7.00;61.70
30594;DHT22;33199;47.590;8.300;2023-03-01T09:57:25;6.90;61.70
30594;DHT22;33199;47.590;8.300;2023-03-01T10:02:38;7.00;61.90
30594;DHT22;33199;47.590;8.300;2023-03-01T10:10:37;7.00;61.90
30594;DHT22;33199;47.590;8.300;2023-03-01T10:13:15;7.00;62.00
30594;DHT22;33199;47.590;8.300;2023-03-01T10:15:58;7.00;62.00
30594;DHT22;33199;47.590;8.300;2023-03-01T10:18:30;7.00;62.00
30594;DHT22;33199;47.590;8.300;2023-03-01T10:21:13;7.00;62.00
30594;DHT22;33199;47.590;8.300;2023-03-01T10:23:39;7.00;62.00
30594;DHT22;33199;47.590;8.300;2023-03-01T10:29:11;7.00;62.00
30594;DHT22;33199;47.590;8.300;2023-03-01T10:31:50;7.00;62.10
30594;DHT22;33199;47.590;8.300;2023-03-01T10:34:29;7.00;62.10
30594;DHT22;33199;47.590;8.300;2023-03-01T10:37:01;7.00;62.10
30594;DHT22;33199;47.590;8.300;2023-03-01T10:39:27;7.00;62.20
30594;DHT22;33199;47.590;8.300;2023-03-01T10:42:02;7.00;62.20
30594;DHT22;33199;47.590;8.300;2023-03-01T10:44:38;7.00;62.20
30594;DHT22;33199;47.590;8.300;2023-03-01T10:47:05;7.00;62.20
30594;DHT22;33199;47.590;8.300;2023-03-01T10:49:35;7.00;61.80
30594;DHT22;33199;47.590;8.300;2023-03-01T10:52:18;7.00;57.40
30594;DHT22;33199;47.590;8.300;2023-03-01T10:54:52;6.80;56.70
30594;DHT22;33199;47.590;8.300;2023-03-01T10:57:35;6.70;56.80
30594;DHT22;33199;47.590;8.300;2023-03-01T11:00:15;6.60;59.10
30594;DHT22;33199;47.590;8.300;2023-03-01T11:02:42;6.70;58.70
30594;DHT22;33199;47.590;8.300;2023-03-01T11:05:19;6.80;58.90
30594;DHT22;33199;47.590;8.300;2023-03-01T11:07:48;6.90;59.10
30594;DHT22;33199;47.590;8.300;2023-03-01T11:10:25;7.00;59.20
30594;DHT22;33199;47.590;8.300;2023-03-01T11:12:52;7.10;59.30
30594;DHT22;33199;47.590;8.300;2023-03-01T11:15:27;7.10;59.30
30594;DHT22;33199;47.590;8.300;2023-03-01T11:17:54;7.20;59.30
30594;DHT22;33199;47.590;8.300;2023-03-01T11:20:32;7.30;59.50
30594;DHT22;33199;47.590;8.300;2023-03-01T11:23:02;7.40;59.50
30594;DHT22;33199;47.590;8.300;2023-03-01T11:25:35;7.40;59.50
30594;DHT22;33199;47.590;8.300;2023-03-01T11:28:04;7.40;59.50
30594;DHT22;33199;47.590;8.300;2023-03-01T11:36:25;7.50;59.70
30594;DHT22;33199;47.590;8.300;2023-03-01T11:38:54;7.60;59.70
30594;DHT22;33199;47.590;8.300;2023-03-01T11:41:29;7.60;59.80
30594;DHT22;33199;47.590;8.300;2023-03-01T11:44:25;7.60;59.80
30594;DHT22;33199;47.590;8.300;2023-03-01T11:47:07;7.60;59.80
30594;DHT22;33199;47.590;8.300;2023-03-01T11:49:55;7.70;59.80
30594;DHT22;33199;47.590;8.300;2023-03-01T12:06:05;7.80;60.00
30594;DHT22;33199;47.590;8.300;2023-03-01T12:19:31;7.90;60.00
30594;DHT22;33199;47.590;8.300;2023-03-01T12:22:09;7.90;60.00
30594;DHT22;33199;47.590;8.300;2023-03-01T12:38:41;7.90;60.30
30594;DHT22;33199;47.590;8.300;2023-03-01T12:44:03;7.90;60.40
30594;DHT22;33199;47.590;8.300;2023-03-01T12:46:54;8.00;60.40
30594;DHT22;33199;47.590;8.300;2023-03-01T12:49:25;7.90;60.30
30594;DHT22;33199;47.590;8.300;2023-03-01T12:55:26;7.90;60.40
30594;DHT22;33199;47.590;8.300;2023-03-01T13:00:32;8.00;60.50
30594;DHT22;33199;47.590;8.300;2023-03-01T13:03:24;8.00;60.60
30594;DHT22;33199;47.590;8.300;2023-03-01T13:06:19;8.00;60.50
30594;DHT22;33199;47.590;8.300;2023-03-01T13:08:58;8.00;60.50
30594;DHT22;33199;47.590;8.300;2023-03-01T13:11:26;8.00;60.50
30594;DHT22;33199;47.590;8.300;2023-03-01T13:13:51;8.00;60.50
30594;DHT22;33199;47.590;8.300;2023-03-01T13:16:39;8.00;60.60
30594;DHT22;33199;47.590;8.300;2023-03-01T13:19:18;8.00;60.50
30594;DHT22;33199;47.590;8.300;2023-03-01T13:21:45;8.00;60.50
30594;DHT22;33199;47.590;8.300;2023-03-01T13:24:43;8.00;60.50
30594;DHT22;33199;47.590;8.300;2023-03-01T13:27:22;8.00;60.60
30594;DHT22;33199;47.590;8.300;2023-03-01T13:29:58;8.00;60.70
30594;DHT22;33199;47.590;8.300;2023-03-01T13:32:32;8.00;60.70
30594;DHT22;33199;47.590;8.300;2023-03-01T13:35:00;8.00;60.60
30594;DHT22;33199;47.590;8.300;2023-03-01T13:37:29;8.00;60.60
30594;DHT22;33199;47.590;8.300;2023-03-01T13:40:00;8.00;60.60
30594;DHT22;33199;47.590;8.300;2023-03-01T13:42:34;8.00;60.60
30594;DHT22;33199;47.590;8.300;2023-03-01T13:45:03;8.00;60.60
30594;DHT22;33199;47.590;8.300;2023-03-01T13:47:30;8.00;60.70
30594;DHT22;33199;47.590;8.300;2023-03-01T13:50:00;8.00;60.70
30594;DHT22;33199;47.590;8.300;2023-03-01T13:55:41;8.00;60.70
30594;DHT22;33199;47.590;8.300;2023-03-01T13:58:32;8.00;60.80
30594;DHT22;33199;47.590;8.300;2023-03-01T14:01:02;8.00;60.80
30594;DHT22;33199;47.590;8.300;2023-03-01T14:03:29;8.00;60.80
30594;DHT22;33199;47.590;8.300;2023-03-01T14:06:04;8.00;60.80
30594;DHT22;33199;47.590;8.300;2023-03-01T14:08:34;8.00;60.70
30594;DHT22;33199;47.590;8.300;2023-03-01T14:19:16;8.00;60.90
30594;DHT22;33199;47.590;8.300;2023-03-01T14:21:44;8.00;60.80
30594;DHT22;33199;47.590;8.300;2023-03-01T14:24:23;8.00;60.80
30594;DHT22;33199;47.590;8.300;2023-03-01T14:26:51;8.00;60.90
30594;DHT22;33199;47.590;8.300;2023-03-01T14:29:43;8.00;60.90
30594;DHT22;33199;47.590;8.300;2023-03-01T14:32:20;8.00;60.90
30594;DHT22;33199;47.590;8.300;2023-03-01T14:34:48;8.00;60.90
30594;DHT22;33199;47.590;8.300;2023-03-01T14:39:45;8.00;61.10
30594;DHT22;33199;47.590;8.300;2023-03-01T14:42:12;8.00;61.00
30594;DHT22;33199;47.590;8.300;2023-03-01T14:44:45;8.00;61.10
30594;DHT22;33199;47.590;8.300;2023-03-01T14:47:32;8.00;61.10
30594;DHT22;33199;47.590;8.300;2023-03-01T14:50:13;8.00;61.10
30594;DHT22;33199;47.590;8.300;2023-03-01T14:52:44;8.00;61.10
30594;DHT22;33199;47.590;8.300;2023-03-01T14:55:31;8.00;61.00
30594;DHT22;33199;47.590;8.300;2023-03-01T14:57:58;8.00;61.10
30594;DHT22;33199;47.590;8.300;2023-03-01T15:00:26;8.00;61.20
30594;DHT22;33199;47.590;8.300;2023-03-01T15:02:54;8.00;61.20
30594;DHT22;33199;47.590;8.300;2023-03-01T15:05:41;8.00;61.20
30594;DHT22;33199;47.590;8.300;2023-03-01T15:08:07;8.00;61.30
30594;DHT22;33199;47.590;8.300;2023-03-01T15:13:31;8.00;61.40
30594;DHT22;33199;47.590;8.300;2023-03-01T15:16:27;8.00;61.30
30594;DHT22;33199;47.590;8.300;2023-03-01T15:21:37;8.00;61.40
30594;DHT22;33199;47.590;8.300;2023-03-01T15:26:44;7.90;61.40
30594;DHT22;33199;47.590;8.300;2023-03-01T15:29:17;8.00;61.50
30594;DHT22;33199;47.590;8.300;2023-03-01T15:31:47;8.00;61.50
30594;DHT22;33199;47.590;8.300;2023-03-01T15:34:26;8.00;61.50
30594;DHT22;33199;47.590;8.300;2023-03-01T15:36:54;8.00;61.40
30594;DHT22;33199;47.590;8.300;2023-03-01T15:39:41;8.00;61.50
30594;DHT22;33199;47.590;8.300;2023-03-01T15:47:39;7.90;61.60
30594;DHT22;33199;47.590;8.300;2023-03-01T15:50:11;7.90;61.50
30594;DHT22;33199;47.590;8.300;2023-03-01T15:52:42;7.90;61.50
30594;DHT22;33199;47.590;8.300;2023-03-01T15:55:26;7.90;61.50
30594;DHT22;33199;47.590;8.300;2023-03-01T15:58:03;7.90;61.50
30594;DHT22;33199;47.590;8.300;2023-03-01T16:00:30;8.00;61.50
30594;DHT22;33199;47.590;8.300;2023-03-01T16:02:56;7.90;61.60
30594;DHT22;33199;47.590;8.300;2023-03-01T16:05:33;7.90;61.50
30594;DHT22;33199;47.590;8.300;2023-03-01T16:08:00;7.90;61.60
30594;DHT22;33199;47.590;8.300;2023-03-01T16:10:27;7.90;61.60
30594;DHT22;33199;47.590;8.300;2023-03-01T16:12:52;7.90;61.70
30594;DHT22;33199;47.590;8.300;2023-03-01T16:15:27;7.90;61.60
30594;DHT22;33199;47.590;8.300;2023-03-01T16:17:54;7.90;61.70
30594;DHT22;33199;47.590;8.300;2023-03-01T16:20:20;7.90;62.40
30594;DHT22;33199;47.590;8.300;2023-03-01T16:22:46;7.90;61.60
30594;DHT22;33199;47.590;8.300;2023-03-01T16:25:16;7.90;61.60
30594;DHT22;33199;47.590;8.300;2023-03-01T16:27:43;7.90;61.70
30594;DHT22;33199;47.590;8.300;2023-03-01T16:30:10;7.90;61.70
30594;DHT22;33199;47.590;8.300;2023-03-01T16:32:39;8.00;61.70
30594;DHT22;33199;47.590;8.300;2023-03-01T16:35:07;7.90;61.70
30594;DHT22;33199;47.590;8.300;2023-03-01T16:37:33;7.90;61.70
30594;DHT22;33199;47.590;8.300;2023-03-01T16:39:59;8.00;61.70
30594;DHT22;33199;47.590;8.300;2023-03-01T16:42:25;7.90;61.70
30594;DHT22;33199;47.590;8.300;2023-03-01T16:44:55;7.90;61.70
30594;DHT22;33199;47.590;8.300;2023-03-01T16:47:21;7.90;61.80
30594;DHT22;33199;47.590;8.300;2023-03-01T16:49:46;7.90;61.80
30594;DHT22;33199;47.590;8.300;2023-03-01T16:52:12;7.90;61.80
30594;DHT22;33199;47.590;8.300;2023-03-01T16:54:38;7.90;61.80
30594;DHT22;33199;47.590;8.300;2023-03-01T16:57:04;7.90;61.80
30594;DHT22;33199;47.590;8.300;2023-03-01T16:59:30;7.90;61.80
30594;DHT22;33199;47.590;8.300;2023-03-01T17:01:55;7.90;61.80
30594;DHT22;33199;47.590;8.300;2023-03-01T17:04:21;7.90;61.90
30594;DHT22;33199;47.590;8.300;2023-03-01T17:06:47;7.90;61.90
30594;DHT22;33199;47.590;8.300;2023-03-01T17:09:14;7.90;61.90
30594;DHT22;33199;47.590;8.300;2023-03-01T17:11:40;7.90;61.90
30594;DHT22;33199;47.590;8.300;2023-03-01T17:14:06;7.90;61.90
30594;DHT22;33199;47.590;8.300;2023-03-01T17:16:32;7.90;61.90
30594;DHT22;33199;47.590;8.300;2023-03-01T17:18:57;7.90;61.90
30594;DHT22;33199;47.590;8.300;2023-03-01T17:21:23;7.90;61.90
30594;DHT22;33199;47.590;8.300;2023-03-01T17:23:49;7.90;61.90
30594;DHT22;33199;47.590;8.300;2023-03-01T17:26:15;7.90;61.90
30594;DHT22;33199;47.590;8.300;2023-03-01T17:28:41;7.90;62.00
30594;DHT22;33199;47.590;8.300;2023-03-01T17:31:08;7.90;62.00
30594;DHT22;33199;47.590;8.300;2023-03-01T17:33:34;7.90;62.80
30594;DHT22;33199;47.590;8.300;2023-03-01T17:36:00;7.90;62.00
30594;DHT22;33199;47.590;8.300;2023-03-01T17:38:26;7.90;61.90
30594;DHT22;33199;47.590;8.300;2023-03-01T17:40:52;7.90;62.10
30594;DHT22;33199;47.590;8.300;2023-03-01T17:43:18;7.90;62.10